Time;durP1;ratioP1;P1;durP2;ratioP2;P2;SDS_P1;SDS_P2;PMS_P1;PMS_P2;Temp;Humidity;BMP_temperature;BMP_pressure;BME280_temperature;BME280_humidity;BME280_pressure;Samples;Min_cycle;Max_cycle;Signal;HPM_P1;HPM_P2
2023/05/26 00:01:36;;;;;;;36.47;7.97;;;7.80;72.00;;;;;;6133947;23;20021;-91
2023/05/26 00:04:02;;;;;;;35.73;8.43;;;7.80;72.00;;;;;;6156169;23;20384;-91
2023/05/26 00:06:31;;;;;;;36.97;8.03;;;7.80;72.10;;;;;;6128249;23;20024;-90
2023/05/26 00:08:57;;;;;;;32.40;7.80;;;7.80;72.10;;;;;;6129847;23;20028;-90
2023/05/26 00:11:23;;;;;;;35.27;8.20;;;7.90;72.10;;;;;;6157257;23;20048;-91
2023/05/26 00:13:49;;;;;;;39.13;8.63;;;7.90;72.10;;;;;;6131901;23;20076;-91
2023/05/26 00:16:15;;;;;;;39.90;8.80;;;8.00;72.10;;;;;;6127628;23;20096;-95
2023/05/26 00:18:40;;;;;;;41.80;9.13;;;8.00;72.10;;;;;;6127757;23;20076;-90
2023/05/26 00:21:09;;;;;;;42.73;9.27;;;8.00;72.10;;;;;;6133558;23;20017;-91
2023/05/26 00:23:35;;;;;;;40.73;8.20;;;8.00;72.00;;;;;;6131609;23;20025;-91
2023/05/26 00:26:03;;;;;;;34.73;8.23;;;8.00;71.90;;;;;;6133028;23;20067;-91
2023/05/26 00:28:29;;;;;;;45.63;9.27;;;8.00;71.90;;;;;;6134780;23;20017;-89
2023/05/26 00:30:58;;;;;;;40.47;8.70;;;8.00;71.90;;;;;;6108753;23;20052;-90
2023/05/26 00:33:26;;;;;;;39.17;8.17;;;8.00;71.90;;;;;;6154241;23;20456;-91
2023/05/26 00:35:55;;;;;;;41.73;7.67;;;8.00;71.90;;;;;;6133189;23;20013;-91
2023/05/26 00:38:21;;;;;;;38.43;7.80;;;8.00;71.80;;;;;;6149526;23;20452;-91
2023/05/26 00:40:50;;;;;;;46.50;9.23;;;7.90;71.80;;;;;;6132585;23;20032;-91
2023/05/26 00:43:24;;;;;;;43.47;8.60;;;7.90;71.80;;;;;;6130580;23;20048;-94
2023/05/26 00:45:52;;;;;;;46.03;8.50;;;7.90;71.70;;;;;;6157650;23;20067;-91
2023/05/26 00:48:18;;;;;;;29.47;7.10;;;7.90;71.70;;;;;;6148674;23;20025;-91
2023/05/26 00:50:43;;;;;;;37.27;7.83;;;7.80;71.70;;;;;;6133459;23;20044;-90
2023/05/26 00:53:11;;;;;;;36.53;8.27;;;7.90;71.70;;;;;;6092466;23;20027;-90
2023/05/26 00:55:38;;;;;;;35.50;8.00;;;7.80;71.60;;;;;;6132991;23;20021;-91
2023/05/26 00:58:05;;;;;;;32.43;7.67;;;7.80;71.60;;;;;;6148208;23;20366;-90
2023/05/26 01:00:34;;;;;;;32.17;7.53;;;7.80;71.60;;;;;;6109262;23;20017;-91
2023/05/26 01:03:00;;;;;;;38.83;8.50;;;7.80;71.60;;;;;;6143627;23;20107;-93
2023/05/26 01:05:26;;;;;;;28.97;7.80;;;7.80;71.60;;;;;;6158611;23;20388;-91
2023/05/26 01:07:54;;;;;;;40.37;8.37;;;7.80;71.60;;;;;;6103502;23;20029;-91
2023/05/26 01:10:21;;;;;;;38.07;8.57;;;7.80;71.60;;;;;;6110455;23;20115;-91
2023/05/26 01:13:12;;;;;;;41.80;9.10;;;7.80;71.70;;;;;;6133773;23;20025;-91
2023/05/26 01:15:46;;;;;;;36.83;7.33;;;7.80;71.70;;;;;;6158520;23;20021;-91
2023/05/26 01:18:36;;;;;;;33.70;7.57;;;7.80;71.70;;;;;;6137359;23;20256;-90
2023/05/26 01:21:10;;;;;;;25.47;7.53;;;7.80;71.70;;;;;;6135341;23;20016;-90
2023/05/26 01:24:26;;;;;;;33.33;7.83;;;7.70;71.70;;;;;;6133089;23;20066;-90
2023/05/26 01:27:15;;;;;;;39.13;7.13;;;7.60;71.80;;;;;;6079399;23;20051;-92
2023/05/26 01:29:45;;;;;;;30.97;7.50;;;7.50;71.90;;;;;;6145915;23;20068;-92
2023/05/26 01:32:15;;;;;;;42.97;7.97;;;7.50;72.00;;;;;;6132922;23;20025;-91
2023/05/26 01:34:41;;;;;;;37.13;7.43;;;7.50;72.10;;;;;;6159732;23;20480;-93
2023/05/26 01:37:10;;;;;;;38.83;8.70;;;7.50;72.10;;;;;;6129385;23;20013;-90
2023/05/26 01:39:36;;;;;;;34.20;8.67;;;7.50;72.20;;;;;;6110022;23;20056;-91
2023/05/26 01:42:15;;;;;;;46.27;7.87;;;7.50;72.20;;;;;;6133824;23;20044;-87
2023/05/26 01:45:11;;;;;;;36.67;7.83;;;7.50;72.30;;;;;;6134942;23;20052;-91
2023/05/26 01:47:41;;;;;;;37.90;8.00;;;7.50;72.30;;;;;;6127933;23;20025;-90
2023/05/26 01:50:08;;;;;;;37.03;7.87;;;7.50;72.20;;;;;;6134990;23;20017;-91
2023/05/26 01:52:37;;;;;;;35.90;8.23;;;7.50;72.20;;;;;;6132629;23;20025;-91
2023/05/26 01:55:26;;;;;;;32.17;7.60;;;7.50;72.20;;;;;;6134450;23;20013;-92
2023/05/26 01:57:56;;;;;;;34.80;7.97;;;7.50;72.30;;;;;;6105378;23;20444;-91
2023/05/26 02:00:25;;;;;;;30.63;7.77;;;7.50;72.30;;;;;;6134582;23;20021;-91
2023/05/26 02:02:51;;;;;;;41.53;8.60;;;7.40;72.40;;;;;;6133392;23;20017;-90
2023/05/26 02:05:17;;;;;;;32.63;8.13;;;7.40;72.40;;;;;;6134362;23;20021;-90
2023/05/26 02:07:45;;;;;;;35.93;7.57;;;7.40;72.50;;;;;;6112206;23;20032;-90
2023/05/26 02:10:11;;;;;;;36.60;8.40;;;7.40;72.60;;;;;;6134040;23;20444;-92
2023/05/26 02:12:37;;;;;;;39.20;8.43;;;7.40;72.60;;;;;;6133468;23;20025;-91
2023/05/26 02:15:03;;;;;;;36.50;8.53;;;7.40;72.70;;;;;;6134785;23;20314;-92
2023/05/26 02:17:30;;;;;;;38.00;7.33;;;7.40;72.60;;;;;;6125614;23;20439;-91
2023/05/26 02:19:57;;;;;;;41.47;8.37;;;7.40;72.60;;;;;;6183829;23;20013;-90
2023/05/26 02:22:25;;;;;;;31.87;7.70;;;7.30;72.60;;;;;;6133712;23;20024;-91
2023/05/26 02:24:53;;;;;;;37.40;8.47;;;7.30;72.80;;;;;;6110351;23;20136;-91
2023/05/26 02:27:19;;;;;;;42.67;8.80;;;7.40;72.70;;;;;;6112028;23;20017;-91
2023/05/26 02:29:48;;;;;;;33.20;7.67;;;7.40;72.70;;;;;;6134263;23;20017;-92
2023/05/26 02:32:14;;;;;;;33.70;7.80;;;7.40;72.70;;;;;;6157412;23;20025;-90
2023/05/26 02:34:43;;;;;;;41.53;7.97;;;7.40;72.70;;;;;;6134646;23;20383;-92
2023/05/26 02:37:09;;;;;;;37.90;8.40;;;7.40;72.70;;;;;;6129181;23;20159;-90
2023/05/26 02:39:38;;;;;;;36.50;7.67;;;7.40;72.70;;;;;;6134857;23;20060;-91
2023/05/26 02:42:06;;;;;;;35.93;8.20;;;7.40;72.80;;;;;;6132383;23;20032;-89
2023/05/26 02:44:40;;;;;;;41.17;8.53;;;7.40;72.80;;;;;;6110559;23;20400;-92
2023/05/26 02:47:06;;;;;;;38.73;7.90;;;7.40;73.00;;;;;;6124874;23;20017;-92
2023/05/26 02:49:31;;;;;;;33.53;7.73;;;7.50;72.90;;;;;;6158731;23;20019;-90
2023/05/26 02:51:57;;;;;;;37.93;7.63;;;7.50;72.90;;;;;;6109691;23;20021;-94
2023/05/26 02:54:26;;;;;;;36.73;8.10;;;7.50;72.90;;;;;;6131976;23;20098;-90
2023/05/26 02:56:52;;;;;;;45.63;7.80;;;7.50;72.90;;;;;;6125855;23;20021;-91
2023/05/26 02:59:35;;;;;;;31.70;7.63;;;7.50;73.00;;;;;;6107585;23;20017;-92
2023/05/26 03:02:00;;;;;;;37.70;7.97;;;7.50;72.90;;;;;;6134274;23;20055;-91
2023/05/26 03:04:26;;;;;;;42.33;7.87;;;7.50;73.00;;;;;;6131887;23;20017;-91
2023/05/26 03:06:57;;;;;;;36.27;7.93;;;7.50;72.90;;;;;;6128438;23;20016;-91
2023/05/26 03:09:23;;;;;;;39.85;8.27;;;7.50;73.00;;;;;;6120157;23;20348;-90
2023/05/26 03:11:49;;;;;;;36.93;8.33;;;7.60;73.00;;;;;;6134377;23;20024;-91
2023/05/26 03:14:23;;;;;;;40.23;8.17;;;7.60;72.90;;;;;;6131709;23;20036;-92
2023/05/26 03:16:51;;;;;;;43.47;8.43;;;7.60;73.00;;;;;;6128833;23;20051;-94
2023/05/26 03:19:25;;;;;;;35.17;8.03;;;7.60;72.90;;;;;;6132656;23;20025;-91
2023/05/26 03:21:56;;;;;;;34.03;7.53;;;7.60;72.90;;;;;;6112980;23;20017;-91
2023/05/26 03:24:22;;;;;;;37.73;7.97;;;7.60;72.90;;;;;;6091675;23;20029;-91
2023/05/26 03:26:51;;;;;;;38.63;7.50;;;7.60;72.90;;;;;;6177642;23;20122;-93
2023/05/26 03:29:20;;;;;;;35.90;7.60;;;7.60;72.90;;;;;;6155935;23;20467;-90
2023/05/26 03:31:55;;;;;;;38.33;7.63;;;7.60;72.90;;;;;;6136275;23;20459;-91
2023/05/26 03:34:24;;;;;;;35.97;7.37;;;7.60;72.90;;;;;;6132348;23;20028;-89
2023/05/26 03:36:54;;;;;;;38.00;7.70;;;7.50;72.90;;;;;;6152428;23;20024;-94
2023/05/26 03:39:22;;;;;;;35.27;7.60;;;7.50;73.00;;;;;;6133168;23;20470;-91
2023/05/26 03:41:49;;;;;;;37.33;7.37;;;7.50;73.00;;;;;;6109400;23;20348;-91
2023/05/26 03:44:18;;;;;;;38.27;8.07;;;7.50;73.00;;;;;;6103156;23;20032;-91
2023/05/26 03:46:46;;;;;;;38.03;8.47;;;7.50;73.10;;;;;;6128646;23;20128;-94
2023/05/26 03:49:11;;;;;;;43.57;8.30;;;7.50;73.10;;;;;;6116336;23;20025;-91
2023/05/26 03:51:40;;;;;;;36.60;7.97;;;7.50;73.10;;;;;;6133371;23;20021;-91
2023/05/26 03:54:06;;;;;;;37.17;8.23;;;7.50;73.20;;;;;;6156817;23;20025;-90
2023/05/26 03:56:34;;;;;;;29.90;8.00;;;7.50;73.20;;;;;;6127274;23;20269;-94
2023/05/26 03:59:05;;;;;;;47.97;8.43;;;7.60;73.20;;;;;;6093253;23;20348;-90
2023/05/26 04:01:36;;;;;;;33.42;7.85;;;7.60;73.20;;;;;;6158532;23;20021;-91
2023/05/26 04:04:05;;;;;;;37.92;8.20;;;7.60;73.20;;;;;;6132505;23;20017;-91
2023/05/26 04:06:33;;;;;;;40.50;8.75;;;7.60;73.20;;;;;;6106870;23;20013;-94
2023/05/26 04:09:00;;;;;;;36.20;8.07;;;7.60;73.10;;;;;;6155328;23;20047;-91
2023/05/26 04:11:26;;;;;;;37.80;7.67;;;7.60;73.20;;;;;;6133961;23;20028;-92
2023/05/26 04:13:52;;;;;;;37.53;7.77;;;7.60;73.20;;;;;;6130873;23;20021;-90
2023/05/26 04:16:18;;;;;;;34.83;7.70;;;7.60;73.20;;;;;;6131280;23;20100;-93
2023/05/26 04:18:46;;;;;;;34.07;7.93;;;7.70;73.20;;;;;;6152501;23;20359;-91
2023/05/26 04:21:12;;;;;;;35.97;7.60;;;7.80;73.20;;;;;;6133244;23;20021;-90
2023/05/26 04:23:51;;;;;;;45.40;8.47;;;7.80;73.10;;;;;;6156882;23;20076;-91
2023/05/26 04:26:20;;;;;;;32.60;7.77;;;7.80;73.20;;;;;;6154738;23;20388;-94
2023/05/26 04:28:49;;;;;;;34.80;7.90;;;7.80;73.10;;;;;;6129134;23;20013;-92
2023/05/26 04:31:16;;;;;;;33.20;7.27;;;7.90;73.10;;;;;;6157855;23;20017;-92
2023/05/26 04:33:44;;;;;;;35.63;7.83;;;8.00;73.00;;;;;;6156485;23;20057;-92
2023/05/26 04:36:10;;;;;;;34.70;8.33;;;8.00;73.00;;;;;;6132159;23;20020;-95
2023/05/26 04:38:45;;;;;;;33.53;7.63;;;8.00;72.90;;;;;;6133246;23;20089;-91
2023/05/26 04:41:11;;;;;;;30.03;7.33;;;8.10;73.00;;;;;;6134937;23;20021;-92
2023/05/26 04:43:40;;;;;;;30.87;7.03;;;8.20;72.90;;;;;;6087404;23;20029;-92
2023/05/26 04:46:08;;;;;;;32.97;7.30;;;8.20;72.80;;;;;;6135590;23;20024;-92
2023/05/26 04:48:36;;;;;;;28.80;6.93;;;8.30;72.70;;;;;;6113446;23;20477;-91
2023/05/26 04:51:25;;;;;;;30.67;6.73;;;8.30;72.70;;;;;;6110070;23;20094;-92
2023/05/26 04:53:59;;;;;;;37.73;7.30;;;8.40;72.70;;;;;;6181590;23;20021;-90
2023/05/26 04:56:30;;;;;;;33.90;7.77;;;8.50;72.60;;;;;;6130249;23;20021;-93
2023/05/26 04:58:56;;;;;;;;;;;8.60;72.50;;;;;;6130973;23;20024;-91
2023/05/26 05:01:24;;;;;;;33.90;7.53;;;8.60;72.60;;;;;;6133501;23;20331;-92
2023/05/26 05:03:59;;;;;;;32.77;7.47;;;8.80;72.50;;;;;;6094632;23;20017;-90
2023/05/26 05:06:48;;;;;;;37.10;7.57;;;8.90;72.30;;;;;;6131900;23;20266;-94
2023/05/26 05:09:21;;;;;;;37.07;7.87;;;9.00;72.40;;;;;;6131778;23;20028;-93
2023/05/26 05:11:49;;;;;;;35.17;7.43;;;9.20;72.30;;;;;;6134347;23;20068;-92
2023/05/26 05:14:15;;;;;;;31.20;7.90;;;9.30;72.20;;;;;;6118750;23;20025;-92
2023/05/26 05:16:44;;;;;;;39.53;7.87;;;9.40;72.20;;;;;;6132083;23;20074;-91
2023/05/26 05:19:30;;;;;;;34.63;7.07;;;9.60;71.90;;;;;;6141321;23;20025;-92
2023/05/26 05:21:56;;;;;;;29.43;7.07;;;9.80;71.90;;;;;;6132187;23;20028;-91
2023/05/26 05:24:53;;;;;;;24.37;6.90;;;10.00;71.60;;;;;;6083740;23;20021;-92
2023/05/26 05:27:51;;;;;;;31.10;6.73;;;10.20;70.70;;;;;;6155215;23;20017;-92
2023/05/26 05:30:45;;;;;;;30.37;6.10;;;10.40;70.50;;;;;;6136892;23;20522;-91
2023/05/26 05:33:34;;;;;;;32.30;7.33;;;10.60;70.30;;;;;;6073839;23;20116;-92
2023/05/26 05:36:28;;;;;;;32.50;6.90;;;10.70;69.30;;;;;;6115350;23;20021;-92
2023/05/26 05:38:57;;;;;;;26.47;6.43;;;10.90;69.40;;;;;;6155608;23;20021;-92
2023/05/26 05:41:33;;;;;;;30.90;7.07;;;11.00;69.40;;;;;;6129524;23;20445;-93
2023/05/26 05:43:58;;;;;;;29.40;7.13;;;11.00;69.40;;;;;;6059817;23;20550;-92
2023/05/26 05:46:27;;;;;;;32.03;7.27;;;11.00;69.40;;;;;;6126078;23;20017;-94
2023/05/26 05:49:05;;;;;;;34.77;7.50;;;11.10;69.50;;;;;;6077179;23;20026;-94
2023/05/26 05:51:41;;;;;;;29.73;6.17;;;11.20;69.60;;;;;;6061214;23;20021;-92
2023/05/26 05:54:21;;;;;;;37.83;7.28;;;11.30;69.10;;;;;;6080969;23;20032;-94
2023/05/26 05:57:08;;;;;;;27.60;6.68;;;11.20;68.90;;;;;;6130215;23;20096;-92
2023/05/26 05:59:36;;;;;;;30.30;6.68;;;11.20;68.70;;;;;;6108508;23;20017;-93
2023/05/26 06:02:05;;;;;;;;;;;11.10;68.60;;;;;;6093057;23;20021;-87
2023/05/26 06:04:43;;;;;;;29.95;6.93;;;11.10;68.20;;;;;;6131084;23;20003;-93
2023/05/26 06:08:15;;;;;;;32.35;6.57;;;11.10;68.70;;;;;;6015023;23;20026;-91
2023/05/26 06:10:44;;;;;;;29.38;6.53;;;11.20;68.20;;;;;;6042571;23;20029;-93
2023/05/26 06:13:10;;;;;;;24.20;5.90;;;11.40;68.30;;;;;;6036310;23;20121;-93
2023/05/26 06:26:51;;;;;;;30.88;6.00;;;11.70;68.00;;;;;;6153133;23;20484;-95
2023/05/26 06:30:35;;;;;;;28.15;6.38;;;11.70;66.40;;;;;;6114200;23;20039;-93
2023/05/26 06:33:01;;;;;;;21.83;5.47;;;11.70;66.90;;;;;;6091392;23;20444;-92
2023/05/26 06:35:35;;;;;;;23.73;5.95;;;11.70;66.70;;;;;;6132555;23;20065;-93
2023/05/26 06:38:01;;;;;;;28.02;5.78;;;11.70;66.30;;;;;;6106976;23;20022;-93
2023/05/26 06:40:27;;;;;;;25.42;5.47;;;11.70;66.30;;;;;;6070841;23;20028;-92
2023/05/26 06:42:52;;;;;;;25.05;5.53;;;11.70;66.00;;;;;;6082099;23;20045;-93
2023/05/26 06:45:39;;;;;;;24.70;5.60;;;11.70;65.30;;;;;;6131657;23;20018;-94
2023/05/26 06:48:16;;;;;;;19.30;5.88;;;11.70;64.30;;;;;;6127737;23;20467;-92
2023/05/26 06:50:42;;;;;;;21.35;5.50;;;11.70;64.80;;;;;;6107328;23;20022;-91
2023/05/26 06:53:11;;;;;;;24.85;5.93;;;11.60;64.70;;;;;;6129527;23;20076;-92
2023/05/26 06:55:37;;;;;;;26.85;6.05;;;11.50;64.90;;;;;;6130667;23;20068;-92
2023/05/26 06:58:02;;;;;;;17.70;5.13;;;11.50;64.50;;;;;;6122421;23;20014;-94
2023/05/26 07:00:31;;;;;;;25.00;5.15;;;11.50;64.40;;;;;;6082663;23;20479;-95
2023/05/26 07:02:57;;;;;;;25.10;5.47;;;11.50;64.40;;;;;;6048539;23;20025;-94
2023/05/26 07:05:23;;;;;;;22.50;5.45;;;11.50;64.40;;;;;;6087869;23;20077;-94
2023/05/26 07:07:49;;;;;;;22.70;5.45;;;11.60;64.50;;;;;;6079025;23;20501;-93
2023/05/26 07:10:17;;;;;;;24.92;5.00;;;11.70;64.40;;;;;;6089614;23;20436;-95
2023/05/26 07:12:43;;;;;;;22.05;5.22;;;11.70;64.00;;;;;;6089919;23;20467;-94
2023/05/26 07:15:10;;;;;;;20.00;4.95;;;11.70;63.70;;;;;;6130518;23;20018;-95
2023/05/26 07:17:56;;;;;;;24.73;5.72;;;11.70;63.30;;;;;;6073282;23;20026;-93
2023/05/26 07:20:28;;;;;;;24.08;5.80;;;11.70;63.30;;;;;;6086255;23;20017;-93
2023/05/26 07:22:56;;;;;;;21.90;4.70;;;11.70;63.50;;;;;;6090978;23;20022;-94
2023/05/26 07:25:58;;;;;;;27.27;4.90;;;11.70;63.70;;;;;;6096898;23;20484;-95
2023/05/26 07:28:54;;;;;;;;;;;;;;;;;;;;;
2023/05/26 07:31:30;;;;;;;19.95;5.32;;;11.90;63.30;;;;;;6103361;23;20014;-93
2023/05/26 07:33:56;;;;;;;19.83;5.15;;;11.90;63.00;;;;;;6085380;23;20105;-96
2023/05/26 07:36:27;;;;;;;28.10;5.25;;;11.90;63.20;;;;;;6100699;23;20021;-93
2023/05/26 07:38:57;;;;;;;;;;;11.90;63.30;;;;;;6098720;23;20019;-94
2023/05/26 07:41:35;;;;;;;18.95;4.57;;;12.00;61.70;;;;;;6128891;23;19916;-94
2023/05/26 07:44:04;;;;;;;19.20;4.65;;;12.00;63.10;;;;;;6089549;23;20041;-92
2023/05/26 07:47:05;;;;;;;23.52;4.82;;;12.10;62.90;;;;;;6139855;23;20048;-95
2023/05/26 07:49:31;;;;;;;;;;;12.20;62.20;;;;;;6111797;23;20119;-92
2023/05/26 07:52:02;;;;;;;17.75;4.80;;;12.20;62.40;;;;;;6089284;23;19995;-91
2023/05/26 07:54:30;;;;;;;16.08;4.57;;;12.30;63.20;;;;;;6039811;23;20025;-93
2023/05/26 07:56:56;;;;;;;17.10;4.70;;;12.30;62.80;;;;;;6085996;23;20017;-94
2023/05/26 07:59:25;;;;;;;20.35;4.50;;;12.40;62.40;;;;;;6072611;23;20084;-92
2023/05/26 08:01:50;;;;;;;21.58;4.28;;;12.40;62.30;;;;;;6091060;23;20124;-90
2023/05/26 08:04:16;;;;;;;18.30;4.80;;;12.50;62.20;;;;;;6086114;23;20100;-94
2023/05/26 08:06:45;;;;;;;17.23;4.18;;;12.50;62.40;;;;;;6136800;23;20027;-94
2023/05/26 08:09:11;;;;;;;21.95;4.90;;;12.50;62.30;;;;;;6089458;23;20032;-91
2023/05/26 08:11:43;;;;;;;18.58;5.07;;;12.50;62.40;;;;;;6144550;23;20021;-94
2023/05/26 08:18:50;;;;;;;14.05;4.88;;;12.50;62.40;;;;;;5970767;23;20547;-94
2023/05/26 08:25:38;;;;;;;13.05;4.63;;;12.50;61.80;;;;;;6105471;23;20029;-94
2023/05/26 08:29:09;;;;;;;16.63;3.90;;;12.50;60.90;;;;;;6100461;23;20463;-95
2023/05/26 08:31:37;;;;;;;19.80;4.78;;;12.60;61.40;;;;;;6048209;23;20025;-94
2023/05/26 08:34:10;;;;;;;17.90;4.60;;;12.60;61.90;;;;;;6090102;23;20021;-96
2023/05/26 08:37:01;;;;;;;17.88;4.78;;;12.60;61.40;;;;;;6108730;23;20511;-96
2023/05/26 08:40:17;;;;;;;;;;;;;;;;;;;;;
2023/05/26 08:43:15;;;;;;;22.08;4.88;;;12.60;61.50;;;;;;6115015;23;20029;-93
2023/05/26 08:45:48;;;;;;;21.20;4.63;;;12.70;61.60;;;;;;6120693;23;20428;-91
2023/05/26 08:48:18;;;;;;;18.88;4.88;;;12.70;61.80;;;;;;6112931;23;20021;-95
2023/05/26 08:50:52;;;;;;;17.90;4.75;;;12.80;61.90;;;;;;6119728;23;20686;-91
2023/05/26 08:53:20;;;;;;;21.80;4.75;;;12.80;61.60;;;;;;6143692;23;20646;-95
2023/05/26 08:55:49;;;;;;;19.02;4.85;;;12.70;61.70;;;;;;6145118;23;20395;-91
2023/05/26 08:58:20;;;;;;;21.20;5.10;;;12.80;61.70;;;;;;6102937;23;20104;-93
2023/05/26 09:00:46;;;;;;;18.30;4.50;;;12.80;61.50;;;;;;6116983;23;20017;-90
2023/05/26 09:03:12;;;;;;;22.15;5.05;;;12.80;61.60;;;;;;6122295;23;20092;-91
2023/05/26 09:05:41;;;;;;;20.40;5.15;;;12.80;61.70;;;;;;6093626;23;20021;-95
2023/05/26 09:08:16;;;;;;;21.02;4.65;;;12.80;61.80;;;;;;6088984;23;20021;-92
2023/05/26 09:10:42;;;;;;;18.95;5.00;;;12.90;61.50;;;;;;6117942;23;20021;-93
2023/05/26 09:13:10;;;;;;;25.05;5.45;;;13.00;61.90;;;;;;6071619;23;20027;-91
2023/05/26 09:15:37;;;;;;;21.63;5.18;;;13.00;61.90;;;;;;6119589;23;20743;-93
2023/05/26 09:18:06;;;;;;;17.95;4.15;;;13.10;61.50;;;;;;6140909;23;20040;-93
2023/05/26 09:20:39;;;;;;;15.18;4.35;;;13.10;61.30;;;;;;6138367;23;20017;-91
2023/05/26 09:23:11;;;;;;;20.98;5.00;;;13.10;60.80;;;;;;6115562;23;20108;-93
2023/05/26 09:25:41;;;;;;;22.90;5.05;;;13.10;61.20;;;;;;6073126;23;20431;-92
2023/05/26 09:28:14;;;;;;;23.02;5.15;;;13.10;61.40;;;;;;6118827;23;20410;-94
2023/05/26 09:31:05;;;;;;;21.48;5.13;;;13.10;61.50;;;;;;6123953;23;20131;-96
2023/05/26 09:34:06;;;;;;;24.85;5.38;;;13.20;61.30;;;;;;6070644;23;20528;-94
2023/05/26 09:36:36;;;;;;;17.23;4.57;;;13.30;61.40;;;;;;6094484;23;20028;-96
2023/05/26 09:39:34;;;;;;;17.17;4.47;;;13.30;61.40;;;;;;6118059;23;20385;-94
2023/05/26 09:42:25;;;;;;;19.02;4.65;;;13.30;61.10;;;;;;6087095;23;20025;-96
2023/05/26 09:45:06;;;;;;;18.63;4.60;;;13.50;60.90;;;;;;6030208;23;20061;-95
2023/05/26 09:48:34;;;;;;;;;;;;;;;;;;;;;
2023/05/26 09:51:32;;;;;;;17.98;4.53;;;13.60;60.30;;;;;;6023219;23;20026;-96
2023/05/26 09:54:21;;;;;;;20.25;4.63;;;13.50;60.50;;;;;;6026114;23;20814;-96
2023/05/26 09:57:27;;;;;;;17.67;4.60;;;13.50;60.00;;;;;;6038590;23;20018;-96
2023/05/26 10:00:25;;;;;;;20.85;5.05;;;13.50;60.10;;;;;;6027048;23;20033;-94
2023/05/26 10:03:53;;;;;;;;;;;;;;;;;;;;;
2023/05/26 10:06:37;;;;;;;14.65;4.57;;;13.40;60.60;;;;;;5993052;23;20020;-96
2023/05/26 10:09:08;;;;;;;17.33;4.18;;;13.60;61.20;;;;;;5921349;23;20121;-94
2023/05/26 10:11:46;;;;;;;19.80;4.70;;;13.70;61.40;;;;;;6025070;23;20438;-94
2023/05/26 10:14:27;;;;;;;19.08;4.40;;;13.80;60.60;;;;;;6015985;23;20026;-96
2023/05/26 10:17:06;;;;;;;;;;;;;;;;;;;;;
2023/05/26 10:19:32;;;;;;;19.75;5.15;;;13.50;60.50;;;;;;6111623;23;20021;-95
2023/05/26 10:22:09;;;;;;;21.23;4.95;;;13.50;60.90;;;;;;6087916;23;20022;-94
2023/05/26 10:25:31;;;;;;;17.48;4.25;;;13.50;61.10;;;;;;6087350;23;20864;-96
2023/05/26 10:28:30;;;;;;;19.75;4.47;;;13.60;60.80;;;;;;6090763;23;20452;-95
2023/05/26 10:31:01;;;;;;;19.48;5.38;;;13.80;60.40;;;;;;6088219;23;20018;-96
2023/05/26 10:33:50;;;;;;;;;;;13.80;60.40;;;;;;6116869;23;20084;-96
2023/05/26 10:36:47;;;;;;;19.17;4.50;;;13.70;59.60;;;;;;6089882;23;19958;-96
2023/05/26 10:39:21;;;;;;;17.77;4.72;;;13.60;60.30;;;;;;6113653;23;20577;-95
2023/05/26 10:42:23;;;;;;;20.30;5.05;;;13.60;60.30;;;;;;6119295;23;20024;-93
2023/05/26 10:45:26;;;;;;;16.38;4.60;;;13.50;59.60;;;;;;6053965;23;20017;-96
2023/05/26 10:47:59;;;;;;;21.67;4.85;;;13.50;59.80;;;;;;6080221;23;20028;-96
2023/05/26 10:50:56;;;;;;;20.70;4.65;;;13.50;60.70;;;;;;6060803;23;20033;-96
2023/05/26 10:57:38;;;;;;;22.95;5.07;;;13.70;59.90;;;;;;6061491;23;20133;-95
2023/05/26 11:00:25;;;;;;;19.40;4.60;;;13.70;60.10;;;;;;6107709;23;20027;-96
2023/05/26 11:02:51;;;;;;;21.02;4.72;;;13.90;59.90;;;;;;6085857;23;20033;-94
2023/05/26 11:05:32;;;;;;;16.45;4.57;;;13.90;60.40;;;;;;6108670;23;20021;-96
2023/05/26 11:08:22;;;;;;;20.77;5.00;;;14.00;60.00;;;;;;6071926;23;20033;-95
2023/05/26 11:11:27;;;;;;;22.30;5.18;;;14.00;59.60;;;;;;6061089;23;20026;-94
2023/05/26 11:14:17;;;;;;;18.50;4.82;;;14.00;60.40;;;;;;6067718;23;20112;-95
2023/05/26 11:16:45;;;;;;;23.17;5.18;;;14.10;60.00;;;;;;6082838;23;20091;-94
2023/05/26 11:19:11;;;;;;;20.83;4.72;;;14.00;60.10;;;;;;6081729;23;20048;-94
2023/05/26 11:21:40;;;;;;;21.10;5.03;;;14.00;60.00;;;;;;6037708;23;21047;-94
2023/05/26 11:24:06;;;;;;;17.85;4.50;;;14.00;59.70;;;;;;6083175;23;20018;-95
2023/05/26 11:26:46;;;;;;;23.52;4.65;;;14.10;59.80;;;;;;6106394;23;20020;-94
2023/05/26 11:29:12;;;;;;;17.25;4.60;;;14.20;59.80;;;;;;6019902;23;20806;-96
2023/05/26 11:31:48;;;;;;;15.27;4.35;;;14.30;59.50;;;;;;6038488;23;20032;-94
2023/05/26 11:34:21;;;;;;;19.38;4.85;;;14.30;58.40;;;;;;6086012;23;20085;-96
2023/05/26 11:36:55;;;;;;;17.88;5.25;;;14.30;59.10;;;;;;6062196;23;20017;-95
2023/05/26 11:39:22;;;;;;;17.02;4.70;;;14.30;59.30;;;;;;6085429;23;20463;-96
2023/05/26 11:41:54;;;;;;;17.25;5.07;;;14.20;59.20;;;;;;6084402;23;20676;-95
2023/05/26 11:44:20;;;;;;;19.98;5.15;;;14.10;59.00;;;;;;6098219;23;20031;-94
2023/05/26 11:47:29;;;;;;;20.88;5.00;;;14.10;60.00;;;;;;6113883;23;20636;-96
2023/05/26 11:50:08;;;;;;;19.90;5.32;;;14.20;59.60;;;;;;6101746;23;20458;-94
2023/05/26 11:52:40;;;;;;;20.73;4.97;;;14.30;60.20;;;;;;6111067;23;20017;-96
2023/05/26 11:55:13;;;;;;;14.88;4.20;;;14.40;60.00;;;;;;6139616;23;20791;-94
2023/05/26 11:57:40;;;;;;;20.13;5.03;;;14.50;59.70;;;;;;6109451;23;20052;-94
2023/05/26 12:00:19;;;;;;;21.00;5.25;;;14.50;59.90;;;;;;6116681;23;20056;-94
2023/05/26 12:03:25;;;;;;;19.13;5.40;;;14.50;59.50;;;;;;6105265;23;20096;-95
2023/05/26 12:05:51;;;;;;;19.42;4.88;;;14.50;59.40;;;;;;6107530;23;20021;-95
2023/05/26 12:08:20;;;;;;;16.77;4.60;;;14.50;59.60;;;;;;6110746;23;20075;-96
2023/05/26 12:10:53;;;;;;;16.73;4.53;;;14.50;59.50;;;;;;6114259;23;20021;-95
2023/05/26 12:13:27;;;;;;;17.27;4.70;;;14.60;59.30;;;;;;6087892;23;20075;-96
2023/05/26 12:15:59;;;;;;;15.68;4.95;;;14.70;59.30;;;;;;6114985;23;20653;-94
2023/05/26 12:18:53;;;;;;;25.88;5.55;;;14.70;59.30;;;;;;6093790;23;20013;-96
2023/05/26 12:21:20;;;;;;;21.58;5.60;;;14.60;59.20;;;;;;6091791;23;20020;-96
2023/05/26 12:23:56;;;;;;;20.50;5.55;;;14.50;60.10;;;;;;6112310;23;20024;-94
2023/05/26 12:26:30;;;;;;;23.20;5.43;;;14.50;60.90;;;;;;6137472;23;20745;-94
2023/05/26 12:29:22;;;;;;;24.33;6.10;;;14.60;60.70;;;;;;6133428;23;20017;-93
2023/05/26 12:31:57;;;;;;;28.42;6.10;;;14.50;60.20;;;;;;6127597;23;20013;-95
2023/05/26 12:34:29;;;;;;;20.45;4.68;;;14.50;60.70;;;;;;6136447;23;20021;-96
2023/05/26 12:37:12;;;;;;;20.65;5.07;;;14.40;60.40;;;;;;6110256;23;20028;-95
2023/05/26 12:39:41;;;;;;;20.88;5.53;;;14.40;61.00;;;;;;6089341;23;20054;-94
2023/05/26 12:42:17;;;;;;;23.67;5.97;;;14.40;61.40;;;;;;6096882;23;20096;-94
2023/05/26 12:44:46;;;;;;;21.30;5.53;;;14.40;61.70;;;;;;6085585;23;20699;-96
2023/05/26 12:47:12;;;;;;;19.20;5.45;;;14.50;61.30;;;;;;6069090;23;20115;-95
2023/05/26 12:49:50;;;;;;;20.42;5.43;;;14.50;61.20;;;;;;6118358;23;20307;-93
2023/05/26 12:52:16;;;;;;;24.48;5.93;;;14.50;61.40;;;;;;6072308;23;20063;-94
2023/05/26 12:54:55;;;;;;;25.23;5.80;;;14.40;61.50;;;;;;6092768;23;20021;-96
2023/05/26 12:57:27;;;;;;;19.00;5.43;;;14.30;61.60;;;;;;6069812;23;20059;-95
2023/05/26 12:59:56;;;;;;;17.45;4.93;;;14.30;61.70;;;;;;6113263;23;20017;-96
2023/05/26 13:02:22;;;;;;;18.27;5.07;;;14.50;61.30;;;;;;6089403;23;20021;-94
2023/05/26 13:04:53;;;;;;;21.02;5.63;;;14.60;61.20;;;;;;6091684;23;20028;-95
2023/05/26 13:07:48;;;;;;;23.42;5.65;;;14.60;61.20;;;;;;6111556;23;20021;-96
2023/05/26 13:10:23;;;;;;;15.07;4.53;;;14.50;61.50;;;;;;6114657;23;20044;-95
2023/05/26 13:12:49;;;;;;;19.58;5.15;;;14.50;61.20;;;;;;6108406;23;20025;-96
2023/05/26 13:15:27;;;;;;;22.08;5.68;;;14.70;61.30;;;;;;6092214;23;20029;-93
2023/05/26 13:18:03;;;;;;;;;;;;;;;;;;;;;
2023/05/26 13:20:37;;;;;;;19.65;5.30;;;14.90;61.40;;;;;;6139863;23;20405;-94
2023/05/26 13:23:29;;;;;;;21.60;5.17;;;14.80;61.30;;;;;;6078317;23;20022;-96
2023/05/26 13:25:58;;;;;;;20.60;4.80;;;14.70;61.00;;;;;;6055068;23;20280;-92
2023/05/26 13:28:27;;;;;;;20.42;5.10;;;14.80;61.20;;;;;;6049628;23;20439;-96
2023/05/26 13:30:53;;;;;;;16.35;4.43;;;14.90;61.20;;;;;;6032731;23;20014;-96
2023/05/26 13:33:31;;;;;;;16.33;4.60;;;14.90;60.60;;;;;;6017995;23;20026;-94
2023/05/26 13:36:14;;;;;;;19.05;5.65;;;14.90;60.30;;;;;;6038038;23;20121;-94
2023/05/26 13:38:45;;;;;;;19.65;5.10;;;14.80;60.30;;;;;;6027706;23;20344;-94
2023/05/26 13:41:19;;;;;;;15.60;4.63;;;14.70;60.00;;;;;;6050315;23;20025;-94
2023/05/26 13:43:48;;;;;;;18.17;5.00;;;14.80;60.40;;;;;;5974265;23;20030;-95
2023/05/26 13:46:14;;;;;;;22.27;5.28;;;14.90;60.40;;;;;;6026076;23;20026;-96
2023/05/26 13:48:51;;;;;;;16.77;4.68;;;14.90;60.40;;;;;;6021534;23;20034;-96
2023/05/26 13:51:17;;;;;;;18.65;5.22;;;14.80;60.10;;;;;;6025838;23;20029;-95
2023/05/26 13:53:57;;;;;;;18.95;4.80;;;14.60;60.50;;;;;;6045015;23;20032;-94